sensor_id;sensor_type;location;lat;lon;timestamp;P1;durP1;ratioP1;P2;durP2;ratioP2
73150;SDS011;61354;50.758;6.106;2023-04-29T00:01:50;11.90;;;6.38;;
73150;SDS011;61354;50.758;6.106;2023-04-29T00:04:16;13.68;;;6.68;;
73150;SDS011;61354;50.758;6.106;2023-04-29T00:06:41;8.65;;;4.50;;
73150;SDS011;61354;50.758;6.106;2023-04-29T00:09:07;9.65;;;5.65;;
73150;SDS011;61354;50.758;6.106;2023-04-29T00:11:33;12.60;;;6.35;;
73150;SDS011;61354;50.758;6.106;2023-04-29T00:13:58;12.68;;;6.88;;
73150;SDS011;61354;50.758;6.106;2023-04-29T00:16:24;12.38;;;6.43;;
73150;SDS011;61354;50.758;6.106;2023-04-29T00:18:50;9.93;;;5.53;;
73150;SDS011;61354;50.758;6.106;2023-04-29T00:21:15;9.68;;;5.53;;
73150;SDS011;61354;50.758;6.106;2023-04-29T00:23:41;13.02;;;6.30;;
73150;SDS011;61354;50.758;6.106;2023-04-29T00:26:06;12.45;;;6.57;;
73150;SDS011;61354;50.758;6.106;2023-04-29T00:28:32;11.68;;;6.45;;
73150;SDS011;61354;50.758;6.106;2023-04-29T00:30:58;14.98;;;7.55;;
73150;SDS011;61354;50.758;6.106;2023-04-29T00:33:24;13.73;;;7.43;;
73150;SDS011;61354;50.758;6.106;2023-04-29T00:35:51;16.45;;;7.95;;
73150;SDS011;61354;50.758;6.106;2023-04-29T00:38:16;14.82;;;7.75;;
73150;SDS011;61354;50.758;6.106;2023-04-29T00:40:42;15.82;;;8.32;;
73150;SDS011;61354;50.758;6.106;2023-04-29T00:43:08;16.88;;;8.50;;
73150;SDS011;61354;50.758;6.106;2023-04-29T00:45:33;16.88;;;8.45;;
73150;SDS011;61354;50.758;6.106;2023-04-29T00:47:59;18.60;;;9.07;;
73150;SDS011;61354;50.758;6.106;2023-04-29T00:50:24;18.00;;;9.23;;
73150;SDS011;61354;50.758;6.106;2023-04-29T00:52:50;19.27;;;9.52;;
73150;SDS011;61354;50.758;6.106;2023-04-29T00:55:16;21.45;;;10.18;;
73150;SDS011;61354;50.758;6.106;2023-04-29T00:57:42;17.25;;;9.27;;
73150;SDS011;61354;50.758;6.106;2023-04-29T01:00:08;19.08;;;9.43;;
73150;SDS011;61354;50.758;6.106;2023-04-29T01:02:34;19.10;;;8.93;;
73150;SDS011;61354;50.758;6.106;2023-04-29T01:04:59;18.02;;;9.18;;
73150;SDS011;61354;50.758;6.106;2023-04-29T01:10:27;18.63;;;9.85;;
73150;SDS011;61354;50.758;6.106;2023-04-29T01:13:08;20.05;;;9.43;;
73150;SDS011;61354;50.758;6.106;2023-04-29T01:18:33;21.33;;;9.13;;
73150;SDS011;61354;50.758;6.106;2023-04-29T01:21:03;18.25;;;9.43;;
73150;SDS011;61354;50.758;6.106;2023-04-29T01:23:29;22.35;;;9.80;;
73150;SDS011;61354;50.758;6.106;2023-04-29T01:25:55;21.23;;;10.00;;
73150;SDS011;61354;50.758;6.106;2023-04-29T01:31:07;23.20;;;11.10;;
73150;SDS011;61354;50.758;6.106;2023-04-29T01:36:17;21.23;;;10.77;;
73150;SDS011;61354;50.758;6.106;2023-04-29T01:38:58;21.05;;;10.10;;
73150;SDS011;61354;50.758;6.106;2023-04-29T01:41:34;19.60;;;9.75;;
73150;SDS011;61354;50.758;6.106;2023-04-29T01:44:11;21.17;;;10.73;;
73150;SDS011;61354;50.758;6.106;2023-04-29T01:46:43;19.20;;;11.00;;
73150;SDS011;61354;50.758;6.106;2023-04-29T01:49:13;20.40;;;11.25;;
73150;SDS011;61354;50.758;6.106;2023-04-29T01:51:38;20.70;;;10.38;;
73150;SDS011;61354;50.758;6.106;2023-04-29T01:54:04;22.30;;;10.18;;
73150;SDS011;61354;50.758;6.106;2023-04-29T01:56:30;23.20;;;11.02;;
73150;SDS011;61354;50.758;6.106;2023-04-29T01:58:55;21.35;;;10.52;;
73150;SDS011;61354;50.758;6.106;2023-04-29T02:01:21;21.02;;;10.05;;
73150;SDS011;61354;50.758;6.106;2023-04-29T02:03:46;23.25;;;11.65;;
73150;SDS011;61354;50.758;6.106;2023-04-29T02:06:12;19.20;;;9.93;;
73150;SDS011;61354;50.758;6.106;2023-04-29T02:08:38;23.77;;;11.40;;
73150;SDS011;61354;50.758;6.106;2023-04-29T02:11:03;20.73;;;10.20;;
73150;SDS011;61354;50.758;6.106;2023-04-29T02:13:29;20.48;;;10.65;;
73150;SDS011;61354;50.758;6.106;2023-04-29T02:15:55;18.00;;;9.68;;
73150;SDS011;61354;50.758;6.106;2023-04-29T02:18:21;18.33;;;8.82;;
73150;SDS011;61354;50.758;6.106;2023-04-29T02:20:47;20.50;;;10.15;;
73150;SDS011;61354;50.758;6.106;2023-04-29T02:23:14;17.38;;;9.23;;
73150;SDS011;61354;50.758;6.106;2023-04-29T02:25:40;19.27;;;9.40;;
73150;SDS011;61354;50.758;6.106;2023-04-29T02:28:05;19.80;;;9.27;;
73150;SDS011;61354;50.758;6.106;2023-04-29T02:30:31;21.10;;;10.38;;
73150;SDS011;61354;50.758;6.106;2023-04-29T02:32:57;20.95;;;10.68;;
73150;SDS011;61354;50.758;6.106;2023-04-29T02:35:22;24.65;;;10.32;;
73150;SDS011;61354;50.758;6.106;2023-04-29T02:37:48;23.30;;;11.00;;
73150;SDS011;61354;50.758;6.106;2023-04-29T02:40:13;23.52;;;10.55;;
73150;SDS011;61354;50.758;6.106;2023-04-29T02:42:39;20.38;;;10.02;;
73150;SDS011;61354;50.758;6.106;2023-04-29T02:45:04;19.63;;;10.48;;
73150;SDS011;61354;50.758;6.106;2023-04-29T02:47:30;21.83;;;11.88;;
73150;SDS011;61354;50.758;6.106;2023-04-29T02:49:56;23.27;;;11.70;;
73150;SDS011;61354;50.758;6.106;2023-04-29T02:52:22;24.52;;;10.70;;
73150;SDS011;61354;50.758;6.106;2023-04-29T02:54:47;24.13;;;10.95;;
73150;SDS011;61354;50.758;6.106;2023-04-29T02:57:13;22.58;;;10.52;;
73150;SDS011;61354;50.758;6.106;2023-04-29T02:59:39;25.95;;;11.60;;
73150;SDS011;61354;50.758;6.106;2023-04-29T03:02:04;25.88;;;11.85;;
73150;SDS011;61354;50.758;6.106;2023-04-29T03:04:30;25.15;;;11.10;;
73150;SDS011;61354;50.758;6.106;2023-04-29T03:06:55;27.85;;;12.98;;
73150;SDS011;61354;50.758;6.106;2023-04-29T03:09:21;28.38;;;12.50;;
73150;SDS011;61354;50.758;6.106;2023-04-29T03:11:47;24.55;;;11.38;;
73150;SDS011;61354;50.758;6.106;2023-04-29T03:14:13;28.98;;;13.77;;
73150;SDS011;61354;50.758;6.106;2023-04-29T03:16:39;24.67;;;12.65;;
73150;SDS011;61354;50.758;6.106;2023-04-29T03:19:04;24.00;;;11.80;;
73150;SDS011;61354;50.758;6.106;2023-04-29T03:21:30;23.75;;;13.32;;
73150;SDS011;61354;50.758;6.106;2023-04-29T03:23:56;25.15;;;12.13;;
73150;SDS011;61354;50.758;6.106;2023-04-29T03:26:22;24.10;;;12.20;;
73150;SDS011;61354;50.758;6.106;2023-04-29T03:28:48;26.15;;;12.60;;
73150;SDS011;61354;50.758;6.106;2023-04-29T03:31:14;24.75;;;12.73;;
73150;SDS011;61354;50.758;6.106;2023-04-29T03:33:41;26.27;;;12.52;;
73150;SDS011;61354;50.758;6.106;2023-04-29T03:36:06;20.60;;;9.95;;
73150;SDS011;61354;50.758;6.106;2023-04-29T03:38:33;23.40;;;11.77;;
73150;SDS011;61354;50.758;6.106;2023-04-29T03:40:59;24.80;;;11.93;;
73150;SDS011;61354;50.758;6.106;2023-04-29T03:43:25;25.27;;;11.75;;
73150;SDS011;61354;50.758;6.106;2023-04-29T03:45:50;27.55;;;11.35;;
73150;SDS011;61354;50.758;6.106;2023-04-29T03:48:16;26.38;;;12.13;;
73150;SDS011;61354;50.758;6.106;2023-04-29T03:50:41;29.90;;;13.13;;
73150;SDS011;61354;50.758;6.106;2023-04-29T03:53:07;25.23;;;12.00;;
73150;SDS011;61354;50.758;6.106;2023-04-29T03:55:33;21.73;;;10.23;;
73150;SDS011;61354;50.758;6.106;2023-04-29T03:57:58;33.72;;;14.05;;
73150;SDS011;61354;50.758;6.106;2023-04-29T04:00:24;25.95;;;10.95;;
73150;SDS011;61354;50.758;6.106;2023-04-29T04:02:55;27.83;;;12.82;;
73150;SDS011;61354;50.758;6.106;2023-04-29T04:05:21;30.63;;;14.30;;
73150;SDS011;61354;50.758;6.106;2023-04-29T04:07:52;28.63;;;13.00;;
73150;SDS011;61354;50.758;6.106;2023-04-29T04:10:18;27.83;;;13.20;;
73150;SDS011;61354;50.758;6.106;2023-04-29T04:12:44;30.25;;;14.23;;
73150;SDS011;61354;50.758;6.106;2023-04-29T04:15:11;34.58;;;13.43;;
73150;SDS011;61354;50.758;6.106;2023-04-29T04:17:37;37.85;;;15.27;;
73150;SDS011;61354;50.758;6.106;2023-04-29T04:20:02;39.40;;;15.77;;
73150;SDS011;61354;50.758;6.106;2023-04-29T04:22:28;38.35;;;15.27;;
73150;SDS011;61354;50.758;6.106;2023-04-29T04:24:54;39.40;;;16.50;;
73150;SDS011;61354;50.758;6.106;2023-04-29T04:27:20;35.08;;;16.02;;
73150;SDS011;61354;50.758;6.106;2023-04-29T04:29:45;40.28;;;17.00;;
73150;SDS011;61354;50.758;6.106;2023-04-29T04:32:11;38.17;;;15.88;;
73150;SDS011;61354;50.758;6.106;2023-04-29T04:34:36;45.30;;;18.50;;
73150;SDS011;61354;50.758;6.106;2023-04-29T04:37:03;35.28;;;15.23;;
73150;SDS011;61354;50.758;6.106;2023-04-29T04:39:30;44.65;;;18.45;;
73150;SDS011;61354;50.758;6.106;2023-04-29T04:41:56;39.38;;;16.73;;
73150;SDS011;61354;50.758;6.106;2023-04-29T04:44:22;35.60;;;16.02;;
73150;SDS011;61354;50.758;6.106;2023-04-29T04:46:47;43.85;;;18.17;;
73150;SDS011;61354;50.758;6.106;2023-04-29T04:49:14;37.92;;;15.95;;
73150;SDS011;61354;50.758;6.106;2023-04-29T04:51:42;37.83;;;17.13;;
73150;SDS011;61354;50.758;6.106;2023-04-29T04:54:09;41.63;;;17.30;;
73150;SDS011;61354;50.758;6.106;2023-04-29T04:56:35;43.13;;;17.58;;
73150;SDS011;61354;50.758;6.106;2023-04-29T04:59:02;43.70;;;18.95;;
73150;SDS011;61354;50.758;6.106;2023-04-29T05:01:28;39.45;;;16.88;;
73150;SDS011;61354;50.758;6.106;2023-04-29T05:03:53;42.83;;;18.08;;
73150;SDS011;61354;50.758;6.106;2023-04-29T05:06:19;36.60;;;16.70;;
73150;SDS011;61354;50.758;6.106;2023-04-29T05:08:45;41.58;;;15.65;;
73150;SDS011;61354;50.758;6.106;2023-04-29T05:11:17;33.13;;;14.65;;
73150;SDS011;61354;50.758;6.106;2023-04-29T05:13:43;33.05;;;12.52;;
73150;SDS011;61354;50.758;6.106;2023-04-29T05:16:09;34.78;;;13.00;;
73150;SDS011;61354;50.758;6.106;2023-04-29T05:18:34;28.42;;;12.88;;
73150;SDS011;61354;50.758;6.106;2023-04-29T05:21:00;28.20;;;12.82;;
73150;SDS011;61354;50.758;6.106;2023-04-29T05:23:26;27.15;;;11.65;;
73150;SDS011;61354;50.758;6.106;2023-04-29T05:25:52;25.40;;;11.82;;
73150;SDS011;61354;50.758;6.106;2023-04-29T05:28:17;28.08;;;12.75;;
73150;SDS011;61354;50.758;6.106;2023-04-29T05:30:43;24.48;;;11.68;;
73150;SDS011;61354;50.758;6.106;2023-04-29T05:33:09;26.42;;;12.25;;
73150;SDS011;61354;50.758;6.106;2023-04-29T05:35:35;23.00;;;11.07;;
73150;SDS011;61354;50.758;6.106;2023-04-29T05:38:01;27.65;;;11.02;;
73150;SDS011;61354;50.758;6.106;2023-04-29T05:40:27;26.38;;;12.13;;
73150;SDS011;61354;50.758;6.106;2023-04-29T05:42:53;26.65;;;11.23;;
73150;SDS011;61354;50.758;6.106;2023-04-29T05:45:18;22.17;;;10.23;;
73150;SDS011;61354;50.758;6.106;2023-04-29T05:47:44;20.63;;;9.25;;
73150;SDS011;61354;50.758;6.106;2023-04-29T05:50:09;20.05;;;9.18;;
73150;SDS011;61354;50.758;6.106;2023-04-29T05:52:36;19.58;;;8.25;;
73150;SDS011;61354;50.758;6.106;2023-04-29T05:55:01;23.08;;;9.65;;
73150;SDS011;61354;50.758;6.106;2023-04-29T05:57:27;17.25;;;8.35;;
73150;SDS011;61354;50.758;6.106;2023-04-29T05:59:53;21.40;;;9.50;;
73150;SDS011;61354;50.758;6.106;2023-04-29T06:02:21;16.70;;;7.63;;
73150;SDS011;61354;50.758;6.106;2023-04-29T06:04:47;16.77;;;7.53;;
73150;SDS011;61354;50.758;6.106;2023-04-29T06:07:13;17.02;;;7.55;;
73150;SDS011;61354;50.758;6.106;2023-04-29T06:09:38;13.82;;;6.80;;
73150;SDS011;61354;50.758;6.106;2023-04-29T06:12:04;17.00;;;7.03;;
73150;SDS011;61354;50.758;6.106;2023-04-29T06:14:30;14.75;;;6.70;;
73150;SDS011;61354;50.758;6.106;2023-04-29T06:16:56;17.55;;;7.55;;
73150;SDS011;61354;50.758;6.106;2023-04-29T06:19:21;14.45;;;6.22;;
73150;SDS011;61354;50.758;6.106;2023-04-29T06:21:47;13.23;;;6.32;;
73150;SDS011;61354;50.758;6.106;2023-04-29T06:24:13;16.05;;;7.28;;
73150;SDS011;61354;50.758;6.106;2023-04-29T06:26:38;17.23;;;7.53;;
73150;SDS011;61354;50.758;6.106;2023-04-29T06:29:04;16.13;;;7.43;;
73150;SDS011;61354;50.758;6.106;2023-04-29T06:31:29;16.05;;;7.10;;
73150;SDS011;61354;50.758;6.106;2023-04-29T06:33:55;14.25;;;7.00;;
73150;SDS011;61354;50.758;6.106;2023-04-29T06:36:21;12.43;;;6.40;;
73150;SDS011;61354;50.758;6.106;2023-04-29T06:38:46;14.05;;;7.00;;
73150;SDS011;61354;50.758;6.106;2023-04-29T06:41:12;15.43;;;7.72;;
73150;SDS011;61354;50.758;6.106;2023-04-29T06:43:37;14.05;;;7.35;;
73150;SDS011;61354;50.758;6.106;2023-04-29T06:46:03;17.25;;;8.23;;
73150;SDS011;61354;50.758;6.106;2023-04-29T06:48:29;15.75;;;7.10;;
73150;SDS011;61354;50.758;6.106;2023-04-29T06:50:55;15.02;;;6.70;;
73150;SDS011;61354;50.758;6.106;2023-04-29T06:53:22;13.60;;;6.90;;
73150;SDS011;61354;50.758;6.106;2023-04-29T06:55:48;14.77;;;6.43;;
73150;SDS011;61354;50.758;6.106;2023-04-29T06:58:14;15.60;;;6.72;;
73150;SDS011;61354;50.758;6.106;2023-04-29T07:00:47;14.30;;;7.45;;
73150;SDS011;61354;50.758;6.106;2023-04-29T07:03:14;15.48;;;7.10;;
73150;SDS011;61354;50.758;6.106;2023-04-29T07:05:40;16.60;;;7.40;;
73150;SDS011;61354;50.758;6.106;2023-04-29T07:08:06;13.18;;;7.05;;
73150;SDS011;61354;50.758;6.106;2023-04-29T07:10:33;13.93;;;6.85;;
73150;SDS011;61354;50.758;6.106;2023-04-29T07:12:59;15.75;;;7.10;;
73150;SDS011;61354;50.758;6.106;2023-04-29T07:15:28;14.68;;;7.13;;
73150;SDS011;61354;50.758;6.106;2023-04-29T07:17:54;13.23;;;5.90;;
73150;SDS011;61354;50.758;6.106;2023-04-29T07:20:20;15.00;;;7.07;;
73150;SDS011;61354;50.758;6.106;2023-04-29T07:22:47;15.50;;;7.10;;
73150;SDS011;61354;50.758;6.106;2023-04-29T07:25:12;13.60;;;6.32;;
73150;SDS011;61354;50.758;6.106;2023-04-29T07:27:38;14.80;;;6.75;;
73150;SDS011;61354;50.758;6.106;2023-04-29T07:30:04;14.80;;;6.53;;
73150;SDS011;61354;50.758;6.106;2023-04-29T07:32:30;13.10;;;6.38;;
73150;SDS011;61354;50.758;6.106;2023-04-29T07:34:59;11.20;;;5.80;;
73150;SDS011;61354;50.758;6.106;2023-04-29T07:37:25;15.43;;;6.63;;
73150;SDS011;61354;50.758;6.106;2023-04-29T07:39:51;12.10;;;6.45;;
73150;SDS011;61354;50.758;6.106;2023-04-29T07:42:17;12.90;;;6.32;;
73150;SDS011;61354;50.758;6.106;2023-04-29T07:44:42;12.65;;;6.28;;
73150;SDS011;61354;50.758;6.106;2023-04-29T07:47:10;15.40;;;6.88;;
73150;SDS011;61354;50.758;6.106;2023-04-29T07:49:38;13.88;;;6.82;;
73150;SDS011;61354;50.758;6.106;2023-04-29T07:52:04;13.23;;;7.07;;
73150;SDS011;61354;50.758;6.106;2023-04-29T07:54:30;12.65;;;6.30;;
73150;SDS011;61354;50.758;6.106;2023-04-29T07:56:59;11.20;;;6.18;;
73150;SDS011;61354;50.758;6.106;2023-04-29T07:59:25;11.77;;;5.95;;
73150;SDS011;61354;50.758;6.106;2023-04-29T08:01:51;12.85;;;5.97;;
73150;SDS011;61354;50.758;6.106;2023-04-29T08:04:17;11.18;;;5.53;;
73150;SDS011;61354;50.758;6.106;2023-04-29T08:06:43;9.75;;;4.80;;
73150;SDS011;61354;50.758;6.106;2023-04-29T08:09:09;10.25;;;5.03;;
73150;SDS011;61354;50.758;6.106;2023-04-29T08:11:35;10.18;;;5.15;;
73150;SDS011;61354;50.758;6.106;2023-04-29T08:14:01;11.35;;;5.55;;
73150;SDS011;61354;50.758;6.106;2023-04-29T08:16:26;8.75;;;4.30;;
73150;SDS011;61354;50.758;6.106;2023-04-29T08:18:52;9.02;;;4.45;;
73150;SDS011;61354;50.758;6.106;2023-04-29T08:21:18;8.27;;;4.05;;
73150;SDS011;61354;50.758;6.106;2023-04-29T08:23:44;9.15;;;4.45;;
73150;SDS011;61354;50.758;6.106;2023-04-29T08:26:10;8.20;;;4.32;;
73150;SDS011;61354;50.758;6.106;2023-04-29T08:28:37;9.27;;;4.38;;
73150;SDS011;61354;50.758;6.106;2023-04-29T08:31:03;8.68;;;4.38;;
73150;SDS011;61354;50.758;6.106;2023-04-29T08:35:57;10.20;;;4.40;;
73150;SDS011;61354;50.758;6.106;2023-04-29T08:38:24;10.02;;;4.40;;
73150;SDS011;61354;50.758;6.106;2023-04-29T08:40:50;9.45;;;4.60;;
73150;SDS011;61354;50.758;6.106;2023-04-29T08:43:16;7.40;;;3.60;;
73150;SDS011;61354;50.758;6.106;2023-04-29T08:45:42;10.98;;;5.13;;
73150;SDS011;61354;50.758;6.106;2023-04-29T08:48:08;10.73;;;5.60;;
73150;SDS011;61354;50.758;6.106;2023-04-29T08:50:38;10.93;;;5.50;;
73150;SDS011;61354;50.758;6.106;2023-04-29T08:53:05;10.63;;;4.80;;
73150;SDS011;61354;50.758;6.106;2023-04-29T08:55:35;11.52;;;5.93;;
73150;SDS011;61354;50.758;6.106;2023-04-29T08:58:04;14.65;;;7.57;;
73150;SDS011;61354;50.758;6.106;2023-04-29T09:00:30;11.00;;;6.55;;
73150;SDS011;61354;50.758;6.106;2023-04-29T09:02:56;13.82;;;6.70;;
73150;SDS011;61354;50.758;6.106;2023-04-29T09:05:24;11.55;;;5.55;;
73150;SDS011;61354;50.758;6.106;2023-04-29T09:07:51;12.77;;;6.00;;
73150;SDS011;61354;50.758;6.106;2023-04-29T09:10:17;14.13;;;6.07;;
73150;SDS011;61354;50.758;6.106;2023-04-29T09:12:43;12.25;;;6.60;;
73150;SDS011;61354;50.758;6.106;2023-04-29T09:15:08;10.82;;;5.50;;
73150;SDS011;61354;50.758;6.106;2023-04-29T09:17:38;14.05;;;6.75;;
73150;SDS011;61354;50.758;6.106;2023-04-29T09:25:13;13.10;;;6.50;;
73150;SDS011;61354;50.758;6.106;2023-04-29T09:27:39;10.77;;;5.55;;
73150;SDS011;61354;50.758;6.106;2023-04-29T09:30:05;10.77;;;5.63;;
73150;SDS011;61354;50.758;6.106;2023-04-29T09:32:32;12.07;;;5.88;;
73150;SDS011;61354;50.758;6.106;2023-04-29T09:34:57;13.15;;;6.30;;
73150;SDS011;61354;50.758;6.106;2023-04-29T09:37:23;11.63;;;5.65;;
73150;SDS011;61354;50.758;6.106;2023-04-29T09:39:51;10.20;;;5.60;;
73150;SDS011;61354;50.758;6.106;2023-04-29T09:42:18;11.45;;;6.07;;
73150;SDS011;61354;50.758;6.106;2023-04-29T09:44:44;12.63;;;6.00;;
73150;SDS011;61354;50.758;6.106;2023-04-29T09:47:10;12.88;;;5.68;;
73150;SDS011;61354;50.758;6.106;2023-04-29T09:49:38;9.82;;;5.38;;
73150;SDS011;61354;50.758;6.106;2023-04-29T09:52:06;10.20;;;4.85;;
73150;SDS011;61354;50.758;6.106;2023-04-29T09:54:34;9.70;;;5.03;;
73150;SDS011;61354;50.758;6.106;2023-04-29T09:57:01;10.60;;;5.25;;
73150;SDS011;61354;50.758;6.106;2023-04-29T09:59:31;11.73;;;6.00;;
73150;SDS011;61354;50.758;6.106;2023-04-29T10:02:00;11.43;;;5.30;;
73150;SDS011;61354;50.758;6.106;2023-04-29T10:04:31;9.48;;;5.28;;
73150;SDS011;61354;50.758;6.106;2023-04-29T10:06:59;14.50;;;6.43;;
73150;SDS011;61354;50.758;6.106;2023-04-29T10:09:26;9.32;;;5.45;;
73150;SDS011;61354;50.758;6.106;2023-04-29T10:11:52;10.63;;;6.15;;
73150;SDS011;61354;50.758;6.106;2023-04-29T10:14:20;10.65;;;5.78;;
73150;SDS011;61354;50.758;6.106;2023-04-29T10:16:47;9.90;;;5.85;;
73150;SDS011;61354;50.758;6.106;2023-04-29T10:19:23;12.55;;;5.75;;
73150;SDS011;61354;50.758;6.106;2023-04-29T10:22:08;10.43;;;5.60;;
73150;SDS011;61354;50.758;6.106;2023-04-29T10:24:36;12.05;;;6.22;;
73150;SDS011;61354;50.758;6.106;2023-04-29T10:27:07;14.13;;;6.18;;
73150;SDS011;61354;50.758;6.106;2023-04-29T10:29:36;12.50;;;6.18;;
73150;SDS011;61354;50.758;6.106;2023-04-29T10:32:06;11.27;;;6.03;;
73150;SDS011;61354;50.758;6.106;2023-04-29T10:34:35;9.73;;;5.60;;
73150;SDS011;61354;50.758;6.106;2023-04-29T10:37:03;13.65;;;6.40;;
73150;SDS011;61354;50.758;6.106;2023-04-29T10:39:31;12.90;;;6.60;;
73150;SDS011;61354;50.758;6.106;2023-04-29T10:42:04;12.52;;;6.35;;
73150;SDS011;61354;50.758;6.106;2023-04-29T10:53:11;10.77;;;5.57;;
73150;SDS011;61354;50.758;6.106;2023-04-29T10:55:38;10.82;;;5.82;;
73150;SDS011;61354;50.758;6.106;2023-04-29T10:58:05;11.20;;;6.25;;
73150;SDS011;61354;50.758;6.106;2023-04-29T11:00:50;9.57;;;5.50;;
73150;SDS011;61354;50.758;6.106;2023-04-29T11:03:43;9.70;;;5.40;;
73150;SDS011;61354;50.758;6.106;2023-04-29T11:06:13;9.90;;;5.63;;
73150;SDS011;61354;50.758;6.106;2023-04-29T11:08:39;8.93;;;5.40;;
73150;SDS011;61354;50.758;6.106;2023-04-29T11:11:06;8.18;;;4.88;;
73150;SDS011;61354;50.758;6.106;2023-04-29T11:13:36;8.60;;;4.93;;
73150;SDS011;61354;50.758;6.106;2023-04-29T11:18:29;8.80;;;5.30;;
73150;SDS011;61354;50.758;6.106;2023-04-29T11:23:33;11.02;;;5.55;;
73150;SDS011;61354;50.758;6.106;2023-04-29T11:26:00;13.20;;;5.82;;
73150;SDS011;61354;50.758;6.106;2023-04-29T11:28:32;10.43;;;5.68;;
73150;SDS011;61354;50.758;6.106;2023-04-29T11:30:58;10.77;;;5.43;;
73150;SDS011;61354;50.758;6.106;2023-04-29T11:33:25;12.25;;;5.93;;
73150;SDS011;61354;50.758;6.106;2023-04-29T11:35:52;12.52;;;5.63;;
73150;SDS011;61354;50.758;6.106;2023-04-29T11:38:27;11.68;;;6.05;;
73150;SDS011;61354;50.758;6.106;2023-04-29T11:40:54;11.63;;;5.68;;
73150;SDS011;61354;50.758;6.106;2023-04-29T11:43:21;12.07;;;6.18;;
73150;SDS011;61354;50.758;6.106;2023-04-29T11:45:49;12.70;;;6.70;;
73150;SDS011;61354;50.758;6.106;2023-04-29T11:48:19;12.48;;;5.95;;
73150;SDS011;61354;50.758;6.106;2023-04-29T11:50:46;12.77;;;6.15;;
73150;SDS011;61354;50.758;6.106;2023-04-29T11:53:13;12.00;;;6.28;;
73150;SDS011;61354;50.758;6.106;2023-04-29T11:55:40;11.82;;;6.72;;
73150;SDS011;61354;50.758;6.106;2023-04-29T11:58:07;11.57;;;6.63;;
73150;SDS011;61354;50.758;6.106;2023-04-29T12:00:33;13.73;;;6.85;;
73150;SDS011;61354;50.758;6.106;2023-04-29T12:02:59;12.88;;;7.20;;
73150;SDS011;61354;50.758;6.106;2023-04-29T12:05:25;11.50;;;6.93;;
73150;SDS011;61354;50.758;6.106;2023-04-29T12:07:50;14.00;;;7.50;;
73150;SDS011;61354;50.758;6.106;2023-04-29T12:10:16;12.60;;;6.72;;
73150;SDS011;61354;50.758;6.106;2023-04-29T12:12:42;11.00;;;6.57;;
73150;SDS011;61354;50.758;6.106;2023-04-29T12:15:09;11.75;;;6.47;;
73150;SDS011;61354;50.758;6.106;2023-04-29T12:17:35;11.88;;;6.80;;
73150;SDS011;61354;50.758;6.106;2023-04-29T12:20:02;14.02;;;7.20;;
73150;SDS011;61354;50.758;6.106;2023-04-29T12:22:31;13.45;;;7.15;;
73150;SDS011;61354;50.758;6.106;2023-04-29T12:24:57;12.32;;;7.00;;
73150;SDS011;61354;50.758;6.106;2023-04-29T12:27:23;13.82;;;7.80;;
73150;SDS011;61354;50.758;6.106;2023-04-29T12:29:50;14.35;;;7.10;;
73150;SDS011;61354;50.758;6.106;2023-04-29T12:32:17;12.30;;;6.85;;
73150;SDS011;61354;50.758;6.106;2023-04-29T12:34:46;13.57;;;7.70;;
73150;SDS011;61354;50.758;6.106;2023-04-29T12:37:12;12.23;;;7.28;;
73150;SDS011;61354;50.758;6.106;2023-04-29T12:39:39;13.73;;;7.88;;
73150;SDS011;61354;50.758;6.106;2023-04-29T12:42:05;13.18;;;7.55;;
73150;SDS011;61354;50.758;6.106;2023-04-29T12:44:34;15.32;;;8.38;;
73150;SDS011;61354;50.758;6.106;2023-04-29T12:47:11;14.30;;;7.93;;
73150;SDS011;61354;50.758;6.106;2023-04-29T12:49:40;14.93;;;8.25;;
73150;SDS011;61354;50.758;6.106;2023-04-29T12:52:07;15.48;;;8.57;;
73150;SDS011;61354;50.758;6.106;2023-04-29T12:54:43;15.48;;;8.93;;
73150;SDS011;61354;50.758;6.106;2023-04-29T12:57:09;15.48;;;9.02;;
73150;SDS011;61354;50.758;6.106;2023-04-29T12:59:36;13.63;;;8.55;;
73150;SDS011;61354;50.758;6.106;2023-04-29T13:02:02;13.90;;;8.65;;
73150;SDS011;61354;50.758;6.106;2023-04-29T13:04:27;15.00;;;8.68;;
73150;SDS011;61354;50.758;6.106;2023-04-29T13:06:53;17.73;;;10.05;;
73150;SDS011;61354;50.758;6.106;2023-04-29T13:09:24;15.02;;;9.07;;
73150;SDS011;61354;50.758;6.106;2023-04-29T13:11:50;16.65;;;9.07;;
73150;SDS011;61354;50.758;6.106;2023-04-29T13:14:16;16.35;;;8.63;;
73150;SDS011;61354;50.758;6.106;2023-04-29T13:16:43;18.23;;;9.10;;
73150;SDS011;61354;50.758;6.106;2023-04-29T13:19:09;16.90;;;9.18;;
73150;SDS011;61354;50.758;6.106;2023-04-29T13:21:35;17.10;;;9.32;;
73150;SDS011;61354;50.758;6.106;2023-04-29T13:24:00;16.02;;;9.98;;
73150;SDS011;61354;50.758;6.106;2023-04-29T13:26:26;15.90;;;10.68;;
73150;SDS011;61354;50.758;6.106;2023-04-29T13:28:52;15.55;;;10.23;;
73150;SDS011;61354;50.758;6.106;2023-04-29T13:31:17;15.48;;;10.38;;
73150;SDS011;61354;50.758;6.106;2023-04-29T13:33:43;18.58;;;10.43;;
73150;SDS011;61354;50.758;6.106;2023-04-29T13:36:09;16.10;;;10.02;;
73150;SDS011;61354;50.758;6.106;2023-04-29T13:38:35;15.07;;;9.25;;
73150;SDS011;61354;50.758;6.106;2023-04-29T13:41:00;16.77;;;10.25;;
73150;SDS011;61354;50.758;6.106;2023-04-29T13:43:26;20.05;;;10.75;;
73150;SDS011;61354;50.758;6.106;2023-04-29T13:45:51;16.30;;;9.77;;
73150;SDS011;61354;50.758;6.106;2023-04-29T13:48:18;17.73;;;10.90;;
73150;SDS011;61354;50.758;6.106;2023-04-29T13:50:44;18.20;;;10.48;;
73150;SDS011;61354;50.758;6.106;2023-04-29T13:53:10;17.23;;;10.63;;
73150;SDS011;61354;50.758;6.106;2023-04-29T13:55:35;17.05;;;9.88;;
73150;SDS011;61354;50.758;6.106;2023-04-29T13:58:01;17.92;;;10.35;;
73150;SDS011;61354;50.758;6.106;2023-04-29T14:00:27;18.42;;;10.38;;
73150;SDS011;61354;50.758;6.106;2023-04-29T14:02:53;16.95;;;9.65;;
73150;SDS011;61354;50.758;6.106;2023-04-29T14:05:19;15.73;;;10.38;;
73150;SDS011;61354;50.758;6.106;2023-04-29T14:07:45;14.82;;;9.40;;
73150;SDS011;61354;50.758;6.106;2023-04-29T14:10:10;18.15;;;10.13;;
73150;SDS011;61354;50.758;6.106;2023-04-29T14:12:36;17.58;;;10.50;;
73150;SDS011;61354;50.758;6.106;2023-04-29T14:15:02;17.27;;;10.20;;
73150;SDS011;61354;50.758;6.106;2023-04-29T14:17:28;18.98;;;10.65;;
73150;SDS011;61354;50.758;6.106;2023-04-29T14:19:53;14.60;;;9.07;;
73150;SDS011;61354;50.758;6.106;2023-04-29T14:22:19;15.90;;;9.93;;
73150;SDS011;61354;50.758;6.106;2023-04-29T14:24:45;18.67;;;10.88;;
73150;SDS011;61354;50.758;6.106;2023-04-29T14:27:11;18.48;;;9.80;;
73150;SDS011;61354;50.758;6.106;2023-04-29T14:29:36;17.55;;;10.18;;
73150;SDS011;61354;50.758;6.106;2023-04-29T14:32:02;17.92;;;9.63;;
73150;SDS011;61354;50.758;6.106;2023-04-29T14:34:28;18.80;;;10.23;;
73150;SDS011;61354;50.758;6.106;2023-04-29T14:36:53;16.27;;;10.27;;
73150;SDS011;61354;50.758;6.106;2023-04-29T14:39:19;14.65;;;9.18;;
73150;SDS011;61354;50.758;6.106;2023-04-29T14:41:45;16.15;;;9.52;;
73150;SDS011;61354;50.758;6.106;2023-04-29T14:44:11;15.52;;;8.85;;
73150;SDS011;61354;50.758;6.106;2023-04-29T14:46:37;15.13;;;9.75;;
73150;SDS011;61354;50.758;6.106;2023-04-29T14:49:02;15.55;;;9.13;;
73150;SDS011;61354;50.758;6.106;2023-04-29T14:51:28;15.00;;;9.75;;
73150;SDS011;61354;50.758;6.106;2023-04-29T14:53:55;14.73;;;8.68;;
73150;SDS011;61354;50.758;6.106;2023-04-29T14:56:20;15.63;;;8.63;;
73150;SDS011;61354;50.758;6.106;2023-04-29T14:58:46;14.43;;;8.48;;
73150;SDS011;61354;50.758;6.106;2023-04-29T15:01:12;13.45;;;8.52;;